sensor_id;sensor_type;location;lat;lon;timestamp;temperature;humidity
66213;SHT31;53015;50.046;8.238;2023-04-06T00:00:02;2.98;71.11
66213;SHT31;53015;50.046;8.238;2023-04-06T00:02:28;2.93;71.30
66213;SHT31;53015;50.046;8.238;2023-04-06T00:04:53;2.64;72.49
66213;SHT31;53015;50.046;8.238;2023-04-06T00:07:19;2.75;72.91
66213;SHT31;53015;50.046;8.238;2023-04-06T00:09:44;2.84;73.16
66213;SHT31;53015;50.046;8.238;2023-04-06T00:12:10;2.77;73.78
66213;SHT31;53015;50.046;8.238;2023-04-06T00:14:35;2.46;74.59
66213;SHT31;53015;50.046;8.238;2023-04-06T00:17:02;2.50;75.04
66213;SHT31;53015;50.046;8.238;2023-04-06T00:19:27;2.46;73.85
66213;SHT31;53015;50.046;8.238;2023-04-06T00:21:53;2.59;74.31
66213;SHT31;53015;50.046;8.238;2023-04-06T11:49:43;14.05;46.34
66213;SHT31;53015;50.046;8.238;2023-04-06T11:52:17;14.17;47.03
66213;SHT31;53015;50.046;8.238;2023-04-06T11:54:43;14.33;49.60
66213;SHT31;53015;50.046;8.238;2023-04-06T11:57:08;14.27;46.57
66213;SHT31;53015;50.046;8.238;2023-04-06T11:59:34;14.38;48.22
66213;SHT31;53015;50.046;8.238;2023-04-06T12:02:01;14.41;47.52
66213;SHT31;53015;50.046;8.238;2023-04-06T12:04:26;14.26;46.87
66213;SHT31;53015;50.046;8.238;2023-04-06T12:06:54;14.32;46.31
66213;SHT31;53015;50.046;8.238;2023-04-06T12:09:20;14.57;46.29
66213;SHT31;53015;50.046;8.238;2023-04-06T12:11:45;14.56;44.90
66213;SHT31;53015;50.046;8.238;2023-04-06T12:14:11;14.65;44.32
66213;SHT31;53015;50.046;8.238;2023-04-06T12:16:37;14.75;44.12
66213;SHT31;53015;50.046;8.238;2023-04-06T12:19:02;15.05;44.82
66213;SHT31;53015;50.046;8.238;2023-04-06T12:21:29;15.23;44.44
66213;SHT31;53015;50.046;8.238;2023-04-06T12:23:56;15.10;42.85
66213;SHT31;53015;50.046;8.238;2023-04-06T12:26:22;14.88;44.63
66213;SHT31;53015;50.046;8.238;2023-04-06T12:28:47;14.77;42.45
66213;SHT31;53015;50.046;8.238;2023-04-06T12:31:16;14.93;44.70
66213;SHT31;53015;50.046;8.238;2023-04-06T12:33:41;15.03;43.74
66213;SHT31;53015;50.046;8.238;2023-04-06T12:36:11;14.98;45.25
66213;SHT31;53015;50.046;8.238;2023-04-06T12:38:37;15.09;44.91
66213;SHT31;53015;50.046;8.238;2023-04-06T12:41:04;15.35;45.40
66213;SHT31;53015;50.046;8.238;2023-04-06T12:43:29;15.20;42.62
66213;SHT31;53015;50.046;8.238;2023-04-06T12:45:55;15.22;42.65
66213;SHT31;53015;50.046;8.238;2023-04-06T12:48:20;15.16;42.54
66213;SHT31;53015;50.046;8.238;2023-04-06T12:50:54;15.36;44.48
66213;SHT31;53015;50.046;8.238;2023-04-06T12:53:19;15.42;42.89
66213;SHT31;53015;50.046;8.238;2023-04-06T12:55:45;15.46;42.72
66213;SHT31;53015;50.046;8.238;2023-04-06T12:58:11;15.67;43.75
66213;SHT31;53015;50.046;8.238;2023-04-06T13:00:37;15.71;41.89
66213;SHT31;53015;50.046;8.238;2023-04-06T13:03:02;15.75;40.82
66213;SHT31;53015;50.046;8.238;2023-04-06T13:05:28;15.81;41.66
66213;SHT31;53015;50.046;8.238;2023-04-06T13:07:53;15.84;43.92
66213;SHT31;53015;50.046;8.238;2023-04-06T13:10:19;15.78;41.46
66213;SHT31;53015;50.046;8.238;2023-04-06T13:12:44;15.47;41.40
66213;SHT31;53015;50.046;8.238;2023-04-06T13:15:11;15.55;41.63
66213;SHT31;53015;50.046;8.238;2023-04-06T13:17:37;15.46;41.04
66213;SHT31;53015;50.046;8.238;2023-04-06T13:20:03;15.47;42.10
66213;SHT31;53015;50.046;8.238;2023-04-06T13:22:28;15.58;43.22
66213;SHT31;53015;50.046;8.238;2023-04-06T13:24:54;15.74;42.78
66213;SHT31;53015;50.046;8.238;2023-04-06T13:27:19;15.77;43.28
66213;SHT31;53015;50.046;8.238;2023-04-06T13:29:45;15.74;41.31
66213;SHT31;53015;50.046;8.238;2023-04-06T13:32:12;15.90;40.39
66213;SHT31;53015;50.046;8.238;2023-04-06T13:34:37;15.87;41.34
66213;SHT31;53015;50.046;8.238;2023-04-06T13:37:03;15.63;38.91
66213;SHT31;53015;50.046;8.238;2023-04-06T13:39:28;15.57;39.57
66213;SHT31;53015;50.046;8.238;2023-04-06T13:41:53;15.39;41.31
66213;SHT31;53015;50.046;8.238;2023-04-06T13:44:19;15.43;39.75
66213;SHT31;53015;50.046;8.238;2023-04-06T13:46:44;15.46;39.59
66213;SHT31;53015;50.046;8.238;2023-04-06T13:54:21;15.65;40.68
66213;SHT31;53015;50.046;8.238;2023-04-06T14:20:05;15.02;38.65
66213;SHT31;53015;50.046;8.238;2023-04-06T15:24:25;13.89;44.61
66213;SHT31;53015;50.046;8.238;2023-04-06T15:26:50;13.89;44.10
66213;SHT31;53015;50.046;8.238;2023-04-06T15:29:16;13.81;43.91
66213;SHT31;53015;50.046;8.238;2023-04-06T15:31:41;13.72;44.05
66213;SHT31;53015;50.046;8.238;2023-04-06T15:34:07;13.81;44.77
66213;SHT31;53015;50.046;8.238;2023-04-06T15:36:32;13.71;44.41
66213;SHT31;53015;50.046;8.238;2023-04-06T15:38:58;13.60;44.61
66213;SHT31;53015;50.046;8.238;2023-04-06T15:41:25;13.40;43.63
66213;SHT31;53015;50.046;8.238;2023-04-06T15:43:51;13.33;44.40
66213;SHT31;53015;50.046;8.238;2023-04-06T15:46:16;13.30;44.65
66213;SHT31;53015;50.046;8.238;2023-04-06T15:48:42;13.19;45.71
66213;SHT31;53015;50.046;8.238;2023-04-06T15:51:08;13.02;45.93
66213;SHT31;53015;50.046;8.238;2023-04-06T15:53:34;12.89;44.48
66213;SHT31;53015;50.046;8.238;2023-04-06T15:55:59;12.91;44.92
66213;SHT31;53015;50.046;8.238;2023-04-06T15:58:26;12.88;46.43
66213;SHT31;53015;50.046;8.238;2023-04-06T16:00:52;12.81;47.97
66213;SHT31;53015;50.046;8.238;2023-04-06T16:03:18;12.88;47.03
66213;SHT31;53015;50.046;8.238;2023-04-06T16:05:43;12.91;46.15
66213;SHT31;53015;50.046;8.238;2023-04-06T16:08:09;12.88;46.00
66213;SHT31;53015;50.046;8.238;2023-04-06T16:10:35;12.88;47.14
66213;SHT31;53015;50.046;8.238;2023-04-06T16:13:00;13.02;45.85
66213;SHT31;53015;50.046;8.238;2023-04-06T16:15:27;12.89;45.85
66213;SHT31;53015;50.046;8.238;2023-04-06T16:17:52;12.88;45.77
66213;SHT31;53015;50.046;8.238;2023-04-06T16:20:18;12.78;46.18
66213;SHT31;53015;50.046;8.238;2023-04-06T16:22:43;12.67;47.67
66213;SHT31;53015;50.046;8.238;2023-04-06T16:25:09;12.62;47.06
66213;SHT31;53015;50.046;8.238;2023-04-06T16:27:34;12.61;48.30
66213;SHT31;53015;50.046;8.238;2023-04-06T16:30:00;12.58;48.56
66213;SHT31;53015;50.046;8.238;2023-04-06T16:32:27;12.37;48.96
66213;SHT31;53015;50.046;8.238;2023-04-06T16:34:52;12.38;49.51
66213;SHT31;53015;50.046;8.238;2023-04-06T16:37:18;12.42;50.48
66213;SHT31;53015;50.046;8.238;2023-04-06T16:39:43;12.41;50.56
66213;SHT31;53015;50.046;8.238;2023-04-06T16:42:09;12.31;51.73
66213;SHT31;53015;50.046;8.238;2023-04-06T16:44:34;12.33;50.86
66213;SHT31;53015;50.046;8.238;2023-04-06T16:47:00;12.23;51.76
66213;SHT31;53015;50.046;8.238;2023-04-06T16:49:27;12.33;52.06
66213;SHT31;53015;50.046;8.238;2023-04-06T16:51:52;12.09;52.68
66213;SHT31;53015;50.046;8.238;2023-04-06T16:54:18;12.04;52.92
66213;SHT31;53015;50.046;8.238;2023-04-06T16:56:43;12.03;54.19
66213;SHT31;53015;50.046;8.238;2023-04-06T16:59:09;12.02;54.20
66213;SHT31;53015;50.046;8.238;2023-04-06T17:01:34;11.87;54.93
66213;SHT31;53015;50.046;8.238;2023-04-06T17:04:00;11.87;54.21
66213;SHT31;53015;50.046;8.238;2023-04-06T17:06:27;11.85;55.55
66213;SHT31;53015;50.046;8.238;2023-04-06T17:08:52;11.83;55.67
66213;SHT31;53015;50.046;8.238;2023-04-06T17:11:18;11.73;55.85
66213;SHT31;53015;50.046;8.238;2023-04-06T17:13:43;11.78;56.64
66213;SHT31;53015;50.046;8.238;2023-04-06T17:16:10;11.69;57.11
66213;SHT31;53015;50.046;8.238;2023-04-06T17:18:36;11.66;57.08
66213;SHT31;53015;50.046;8.238;2023-04-06T17:21:03;11.65;56.61
66213;SHT31;53015;50.046;8.238;2023-04-06T17:23:30;11.66;55.51
66213;SHT31;53015;50.046;8.238;2023-04-06T17:25:56;11.73;55.34
66213;SHT31;53015;50.046;8.238;2023-04-06T17:28:21;11.75;55.70
66213;SHT31;53015;50.046;8.238;2023-04-06T17:30:47;11.62;56.96
66213;SHT31;53015;50.046;8.238;2023-04-06T17:33:12;11.65;56.73
66213;SHT31;53015;50.046;8.238;2023-04-06T17:35:38;11.50;57.51
66213;SHT31;53015;50.046;8.238;2023-04-06T17:38:03;11.47;57.98
66213;SHT31;53015;50.046;8.238;2023-04-06T17:40:30;11.37;58.98
66213;SHT31;53015;50.046;8.238;2023-04-06T17:42:55;11.23;60.72
66213;SHT31;53015;50.046;8.238;2023-04-06T17:45:21;11.18;61.38
66213;SHT31;53015;50.046;8.238;2023-04-06T17:47:46;11.09;63.40
66213;SHT31;53015;50.046;8.238;2023-04-06T17:50:12;10.96;64.27
66213;SHT31;53015;50.046;8.238;2023-04-06T17:52:37;11.07;64.77
66213;SHT31;53015;50.046;8.238;2023-04-06T17:55:03;10.99;63.72
66213;SHT31;53015;50.046;8.238;2023-04-06T17:57:30;10.93;64.98
66213;SHT31;53015;50.046;8.238;2023-04-06T17:59:56;10.88;65.54
66213;SHT31;53015;50.046;8.238;2023-04-06T18:02:21;10.76;65.19
66213;SHT31;53015;50.046;8.238;2023-04-06T18:04:51;10.72;65.60
66213;SHT31;53015;50.046;8.238;2023-04-06T18:07:16;10.63;66.68
66213;SHT31;53015;50.046;8.238;2023-04-06T18:09:42;10.55;68.02
66213;SHT31;53015;50.046;8.238;2023-04-06T18:12:07;10.52;68.76
66213;SHT31;53015;50.046;8.238;2023-04-06T18:14:34;10.40;69.90
66213;SHT31;53015;50.046;8.238;2023-04-06T18:17:00;10.20;70.52
66213;SHT31;53015;50.046;8.238;2023-04-06T18:19:25;10.13;70.69
66213;SHT31;53015;50.046;8.238;2023-04-06T18:21:51;10.11;71.13
66213;SHT31;53015;50.046;8.238;2023-04-06T18:24:16;10.18;72.38
66213;SHT31;53015;50.046;8.238;2023-04-06T18:26:42;10.07;72.43
66213;SHT31;53015;50.046;8.238;2023-04-06T18:29:07;10.07;73.10
66213;SHT31;53015;50.046;8.238;2023-04-06T18:31:34;10.04;73.02
66213;SHT31;53015;50.046;8.238;2023-04-06T18:33:59;9.93;74.55
66213;SHT31;53015;50.046;8.238;2023-04-06T18:36:25;9.76;74.64
66213;SHT31;53015;50.046;8.238;2023-04-06T18:38:50;9.85;75.22
66213;SHT31;53015;50.046;8.238;2023-04-06T18:41:16;9.76;76.19
66213;SHT31;53015;50.046;8.238;2023-04-06T18:43:41;9.83;76.82
66213;SHT31;53015;50.046;8.238;2023-04-06T18:46:09;9.63;76.21
66213;SHT31;53015;50.046;8.238;2023-04-06T18:48:36;9.72;77.20
66213;SHT31;53015;50.046;8.238;2023-04-06T18:51:02;9.69;77.92
66213;SHT31;53015;50.046;8.238;2023-04-06T18:53:27;9.61;78.17
66213;SHT31;53015;50.046;8.238;2023-04-06T18:55:54;9.52;78.77
66213;SHT31;53015;50.046;8.238;2023-04-06T18:58:20;9.45;79.11
66213;SHT31;53015;50.046;8.238;2023-04-06T19:00:45;9.39;79.67
66213;SHT31;53015;50.046;8.238;2023-04-06T19:03:11;9.42;80.45
66213;SHT31;53015;50.046;8.238;2023-04-06T19:05:39;9.46;80.53
66213;SHT31;53015;50.046;8.238;2023-04-06T19:08:04;9.34;80.59
66213;SHT31;53015;50.046;8.238;2023-04-06T19:10:30;9.39;81.02
66213;SHT31;53015;50.046;8.238;2023-04-06T19:12:55;9.30;81.38
66213;SHT31;53015;50.046;8.238;2023-04-06T19:15:21;9.28;82.30
66213;SHT31;53015;50.046;8.238;2023-04-06T19:17:46;9.32;82.56
66213;SHT31;53015;50.046;8.238;2023-04-06T19:20:12;9.30;82.75
66213;SHT31;53015;50.046;8.238;2023-04-06T19:22:39;9.20;83.26
66213;SHT31;53015;50.046;8.238;2023-04-06T19:25:05;9.28;83.64
66213;SHT31;53015;50.046;8.238;2023-04-06T19:27:31;9.32;84.47
66213;SHT31;53015;50.046;8.238;2023-04-06T19:29:57;9.23;84.85
66213;SHT31;53015;50.046;8.238;2023-04-06T19:32:22;9.15;84.56
66213;SHT31;53015;50.046;8.238;2023-04-06T19:34:48;9.18;84.79
66213;SHT31;53015;50.046;8.238;2023-04-06T19:37:13;9.24;85.18
66213;SHT31;53015;50.046;8.238;2023-04-06T19:39:40;9.10;85.87
66213;SHT31;53015;50.046;8.238;2023-04-06T19:42:06;9.10;86.56
66213;SHT31;53015;50.046;8.238;2023-04-06T19:44:31;9.03;86.99
66213;SHT31;53015;50.046;8.238;2023-04-06T19:46:57;9.00;87.32
66213;SHT31;53015;50.046;8.238;2023-04-06T19:49:22;9.05;87.41
66213;SHT31;53015;50.046;8.238;2023-04-06T19:51:48;9.03;87.33
66213;SHT31;53015;50.046;8.238;2023-04-06T19:54:13;9.13;86.93
66213;SHT31;53015;50.046;8.238;2023-04-06T19:56:40;9.14;86.84
66213;SHT31;53015;50.046;8.238;2023-04-06T19:59:05;9.15;86.78
66213;SHT31;53015;50.046;8.238;2023-04-06T20:01:31;8.99;87.38
66213;SHT31;53015;50.046;8.238;2023-04-06T20:03:56;8.94;87.52
66213;SHT31;53015;50.046;8.238;2023-04-06T20:06:22;8.93;88.00
66213;SHT31;53015;50.046;8.238;2023-04-06T20:08:47;8.90;87.91
66213;SHT31;53015;50.046;8.238;2023-04-06T20:11:13;8.87;88.16
66213;SHT31;53015;50.046;8.238;2023-04-06T20:13:39;8.79;88.47
66213;SHT31;53015;50.046;8.238;2023-04-06T20:16:05;8.67;88.90
66213;SHT31;53015;50.046;8.238;2023-04-06T20:18:30;8.81;88.05
66213;SHT31;53015;50.046;8.238;2023-04-06T20:20:56;8.79;87.85
66213;SHT31;53015;50.046;8.238;2023-04-06T20:23:22;8.69;88.38
66213;SHT31;53015;50.046;8.238;2023-04-06T20:25:47;8.83;88.16
66213;SHT31;53015;50.046;8.238;2023-04-06T20:28:13;8.81;88.43
66213;SHT31;53015;50.046;8.238;2023-04-06T20:30:39;8.87;88.48
66213;SHT31;53015;50.046;8.238;2023-04-06T20:33:05;8.80;88.81
66213;SHT31;53015;50.046;8.238;2023-04-06T20:35:30;8.79;88.42
66213;SHT31;53015;50.046;8.238;2023-04-06T20:37:56;8.65;89.39
66213;SHT31;53015;50.046;8.238;2023-04-06T20:40:22;8.70;88.51
66213;SHT31;53015;50.046;8.238;2023-04-06T20:42:48;8.60;88.99
66213;SHT31;53015;50.046;8.238;2023-04-06T20:45:13;8.63;88.89
66213;SHT31;53015;50.046;8.238;2023-04-06T20:47:40;8.79;88.40
66213;SHT31;53015;50.046;8.238;2023-04-06T20:50:07;8.52;89.66
66213;SHT31;53015;50.046;8.238;2023-04-06T20:52:32;8.59;89.22
66213;SHT31;53015;50.046;8.238;2023-04-06T20:54:58;8.66;88.93
66213;SHT31;53015;50.046;8.238;2023-04-06T20:57:24;8.65;89.35
66213;SHT31;53015;50.046;8.238;2023-04-06T20:59:49;8.58;88.56
66213;SHT31;53015;50.046;8.238;2023-04-06T21:02:15;8.45;88.23
66213;SHT31;53015;50.046;8.238;2023-04-06T21:04:43;8.50;88.39
66213;SHT31;53015;50.046;8.238;2023-04-06T21:07:08;8.46;88.45
66213;SHT31;53015;50.046;8.238;2023-04-06T21:09:34;8.39;88.77
66213;SHT31;53015;50.046;8.238;2023-04-06T21:11:59;8.35;89.17
66213;SHT31;53015;50.046;8.238;2023-04-06T21:14:25;8.25;89.67
66213;SHT31;53015;50.046;8.238;2023-04-06T21:16:50;8.24;89.99
66213;SHT31;53015;50.046;8.238;2023-04-06T21:19:16;8.17;90.16
66213;SHT31;53015;50.046;8.238;2023-04-06T21:21:42;8.35;89.93
66213;SHT31;53015;50.046;8.238;2023-04-06T21:24:08;8.46;89.94
66213;SHT31;53015;50.046;8.238;2023-04-06T21:26:34;8.46;89.85
66213;SHT31;53015;50.046;8.238;2023-04-06T21:28:59;8.52;90.23
66213;SHT31;53015;50.046;8.238;2023-04-06T21:31:25;8.39;90.54
66213;SHT31;53015;50.046;8.238;2023-04-06T21:33:50;8.45;90.78
66213;SHT31;53015;50.046;8.238;2023-04-06T21:36:16;8.48;90.40
66213;SHT31;53015;50.046;8.238;2023-04-06T21:38:43;8.38;90.49
66213;SHT31;53015;50.046;8.238;2023-04-06T21:41:08;8.41;90.71
66213;SHT31;53015;50.046;8.238;2023-04-06T21:43:34;8.24;90.72
66213;SHT31;53015;50.046;8.238;2023-04-06T21:45:59;8.24;91.23
66213;SHT31;53015;50.046;8.238;2023-04-06T21:48:25;8.27;91.11
66213;SHT31;53015;50.046;8.238;2023-04-06T21:50:50;8.31;91.36
66213;SHT31;53015;50.046;8.238;2023-04-06T21:53:16;8.37;91.81
66213;SHT31;53015;50.046;8.238;2023-04-06T21:55:43;8.27;91.57
66213;SHT31;53015;50.046;8.238;2023-04-06T21:58:09;8.45;91.14
66213;SHT31;53015;50.046;8.238;2023-04-06T22:00:34;8.37;91.02
66213;SHT31;53015;50.046;8.238;2023-04-06T22:03:00;8.35;91.31
66213;SHT31;53015;50.046;8.238;2023-04-06T22:05:25;8.32;91.15
66213;SHT31;53015;50.046;8.238;2023-04-06T22:07:51;8.28;91.21
66213;SHT31;53015;50.046;8.238;2023-04-06T22:10:16;8.34;91.39
66213;SHT31;53015;50.046;8.238;2023-04-06T22:12:43;8.22;91.27
66213;SHT31;53015;50.046;8.238;2023-04-06T22:15:11;8.28;91.39
66213;SHT31;53015;50.046;8.238;2023-04-06T22:17:36;8.12;91.76
66213;SHT31;53015;50.046;8.238;2023-04-06T22:20:02;8.34;91.13
66213;SHT31;53015;50.046;8.238;2023-04-06T22:22:28;8.35;90.85
66213;SHT31;53015;50.046;8.238;2023-04-06T22:24:53;8.34;90.39
66213;SHT31;53015;50.046;8.238;2023-04-06T22:27:19;8.31;91.40
66213;SHT31;53015;50.046;8.238;2023-04-06T22:29:45;8.29;91.32
66213;SHT31;53015;50.046;8.238;2023-04-06T22:32:11;8.37;91.59
66213;SHT31;53015;50.046;8.238;2023-04-06T22:34:36;8.39;91.41
66213;SHT31;53015;50.046;8.238;2023-04-06T22:37:02;8.44;91.27
66213;SHT31;53015;50.046;8.238;2023-04-06T22:39:27;8.42;91.03
66213;SHT31;53015;50.046;8.238;2023-04-06T22:41:53;8.31;90.80
66213;SHT31;53015;50.046;8.238;2023-04-06T22:44:18;8.17;91.88
66213;SHT31;53015;50.046;8.238;2023-04-06T22:46:45;8.37;91.24
66213;SHT31;53015;50.046;8.238;2023-04-06T22:49:10;8.39;91.35
66213;SHT31;53015;50.046;8.238;2023-04-06T22:51:36;8.58;91.25
66213;SHT31;53015;50.046;8.238;2023-04-06T22:54:01;8.55;91.51
66213;SHT31;53015;50.046;8.238;2023-04-06T22:56:27;8.58;91.57
66213;SHT31;53015;50.046;8.238;2023-04-06T22:58:52;8.55;90.96
66213;SHT31;53015;50.046;8.238;2023-04-06T23:01:18;8.53;90.80
66213;SHT31;53015;50.046;8.238;2023-04-06T23:03:45;8.45;91.30
66213;SHT31;53015;50.046;8.238;2023-04-06T23:06:10;8.49;91.34
66213;SHT31;53015;50.046;8.238;2023-04-06T23:08:36;8.41;91.29
66213;SHT31;53015;50.046;8.238;2023-04-06T23:11:01;8.34;91.77
66213;SHT31;53015;50.046;8.238;2023-04-06T23:13:27;8.27;92.09
66213;SHT31;53015;50.046;8.238;2023-04-06T23:15:54;8.24;92.49
66213;SHT31;53015;50.046;8.238;2023-04-06T23:18:20;8.18;92.36
66213;SHT31;53015;50.046;8.238;2023-04-06T23:20:47;8.20;92.75
66213;SHT31;53015;50.046;8.238;2023-04-06T23:23:13;8.24;92.67
66213;SHT31;53015;50.046;8.238;2023-04-06T23:25:38;8.34;92.71
66213;SHT31;53015;50.046;8.238;2023-04-06T23:28:04;8.28;92.34
66213;SHT31;53015;50.046;8.238;2023-04-06T23:30:29;8.14;93.13
66213;SHT31;53015;50.046;8.238;2023-04-06T23:32:55;8.27;92.55
66213;SHT31;53015;50.046;8.238;2023-04-06T23:35:21;8.28;92.47
66213;SHT31;53015;50.046;8.238;2023-04-06T23:37:48;8.27;92.55
66213;SHT31;53015;50.046;8.238;2023-04-06T23:40:14;8.35;92.76
66213;SHT31;53015;50.046;8.238;2023-04-06T23:42:39;8.35;92.56
66213;SHT31;53015;50.046;8.238;2023-04-06T23:45:06;8.37;92.25
66213;SHT31;53015;50.046;8.238;2023-04-06T23:47:32;8.29;92.26
66213;SHT31;53015;50.046;8.238;2023-04-06T23:49:58;8.29;92.13
66213;SHT31;53015;50.046;8.238;2023-04-06T23:52:24;8.25;92.16
66213;SHT31;53015;50.046;8.238;2023-04-06T23:54:51;8.28;91.93
66213;SHT31;53015;50.046;8.238;2023-04-06T23:57:17;8.14;92.28
66213;SHT31;53015;50.046;8.238;2023-04-06T23:59:42;8.20;92.47
